Weather observations for the past three days for
Quentin Aanenson Field Airport
Imperial (Metric)
Date Time (cdt) Wind (mph) Vis. (mi.) Weather Sky Cond. Temperature (ºF) Relative Humidity Wind Chill (°F) Heat Index (°F) Pressure Precipitation (in)
Air Dwpt 6 hour altimeter (in) sea level (mb) 1 hr 3 hr 6 hr
Max. Min.
04 07:35 W 7 10.00 Fair CLR 51.8 37.4 58% 29.56 0.0
04 07:15 SW 10 10.00 Fair CLR 51.8 37.4 58% 29.54 0.0
04 06:55 W 9 10.00 Fair CLR 51.8 37.4 58% 29.54 0.0
04 06:35 W 12 10.00 Fair CLR 50 35.6 58% 46 29.54 0.0
04 06:15 SW 8 10.00 Fair CLR 48.2 35.6 62% 45 29.53 0.0
04 05:55 SW 10 10.00 Fair CLR 48.2 35.6 62% 44 29.53 0.0
04 05:35 SW 8 10.00 Fair CLR 50 35.6 58% 47 29.54 0.0
04 05:15 SW 10 10.00 Fair CLR 48.2 35.6 62% 44 29.56 0.0
04 04:55 SW 10 10.00 Fair CLR 48.2 35.6 62% 44 29.56 0.0
04 04:35 SW 10 10.00 Fair CLR 46.4 33.8 62% 42 29.57 0.0
04 04:15 SW 6 10.00 Fair CLR 44.6 33.8 66% 42 29.57 0.0
04 03:55 SW 9 10.00 Fair CLR 44.6 33.8 66% 40 29.57 0.0
04 03:35 SW 6 10.00 Fair CLR 44.6 33.8 66% 42 29.57 0.0
04 03:15 SW 3 10.00 Fair CLR 44.6 33.8 66% 29.58 0.0
04 02:55 Calm 10.00 Fair CLR 46.4 32 57% 29.59 0.0
04 02:35 SW 8 10.00 Fair CLR 44.6 32 61% 41 29.6 0.0
04 02:15 SW 8 10.00 Fair CLR 44.6 33.8 66% 41 29.61 0.0
04 01:55 SW 10 10.00 Fair CLR 44.6 32 61% 40 29.62 0.0
04 01:35 SW 10 10.00 Fair CLR 44.6 33.8 66% 40 29.62 0.0
04 01:15 SW 10 10.00 Fair CLR 44.6 33.8 66% 40 29.64 0.0
04 00:55 SW 6 10.00 Fair CLR 44.6 32 61% 42 29.64 0.0
04 00:35 Calm 10.00 Fair CLR 46.4 32 57% 29.65 0.0
04 00:15 Calm 10.00 Fair CLR 46.4 32 57% 29.66 0.0
03 23:55 Calm 10.00 Fair CLR 48.2 33.8 58% 29.66 0.0
03 23:35 SW 5 10.00 Fair CLR 46.4 32 57% 45 29.68 0.0
03 23:15 SW 7 10.00 Fair CLR 50 32 50% 48 29.68 0.0
03 22:55 SW 8 10.00 Fair CLR 50 32 50% 47 29.69 0.0
03 22:35 SW 9 10.00 Fair CLR 50 32 50% 47 29.7 0.0
03 22:15 SW 9 10.00 Fair CLR 51.8 32 47% 29.71 0.0
03 21:55 W 7 10.00 Fair CLR 53.6 32 44% 29.71 0.0
03 21:35 W 8 10.00 Fair CLR 55.4 32 41% 29.71 0.0
03 21:15 W 7 10.00 Fair CLR 55.4 32 41% 29.71 0.0
03 20:55 SW 8 10.00 Fair CLR 55.4 32 41% 29.71 0.0
03 20:35 SW 8 10.00 Fair CLR 60.8 32 34% 29.72 0.0
03 20:15 SW 8 10.00 Fair CLR 62.6 32 32% 29.72 0.0
03 19:55 W 8 10.00 Fair CLR 66.2 32 28% 29.73 0.0
03 19:35 W 8 10.00 Fair CLR 68 32 26% 29.73 0.0
03 19:15 W 14 10.00 Fair CLR 69.8 30.2 23% 29.73 0.0
03 18:55 W 13 10.00 Fair CLR 69.8 32 25% 29.74 0.0
03 18:35 W 16 10.00 Fair CLR 69.8 30.2 23% 29.74 0.0
03 18:15 W 12 10.00 Fair CLR 69.8 30.2 23% 29.74 0.0
03 17:55 NW 8 10.00 Fair CLR 69.8 30.2 23% 29.75 0.0
03 17:35 NW 10 10.00 Fair CLR 69.8 30.2 23% 29.76 0.0
03 17:15 NW 12 G 20 10.00 Fair CLR 71.6 28.4 20% 29.76 0.0
03 16:55 W 17 G 22 10.00 Fair CLR 71.6 28.4 20% 29.77 0.0
03 16:35 W 17 G 23 10.00 Fair CLR 71.6 30.2 22% 29.77 0.0
03 16:15 W 15 G 22 10.00 Fair CLR 71.6 32 23% 29.78 0.0
03 15:55 NW 13 G 23 10.00 Fair CLR 71.6 32 23% 29.78 0.0
03 15:35 NW 9 10.00 Fair CLR 71.6 32 23% 29.79 0.0
03 15:15 NW 13 G 18 10.00 Fair CLR 71.6 30.2 22% 29.8 0.0
03 14:55 N 10 10.00 Fair CLR 69.8 32 25% 29.8 0.0
03 14:35 NW 7 G 20 10.00 Fair CLR 69.8 30.2 23% 29.81 0.0
03 14:15 NW 8 G 30 10.00 Fair CLR 69.8 32 25% 29.82 0.0
03 13:55 NW 8 G 23 10.00 Fair CLR 68 30.2 24% 29.83 0.0
03 13:35 NW 13 G 22 10.00 Fair CLR 69.8 32 25% 29.83 0.0
03 13:15 NW 14 G 20 10.00 Fair CLR 68 32 26% 29.84 0.0
03 12:55 NW 16 G 24 10.00 Fair CLR 68 32 26% 29.85 0.0
03 12:35 NW 16 G 24 10.00 Fair CLR 68 32 26% 29.85 0.0
03 12:15 N 13 G 22 10.00 Fair CLR 68 33.8 28% 29.85 0.0
03 11:55 NW 15 G 21 10.00 Fair CLR 66.2 33.8 30% 29.85 0.0
03 11:35 N 20 G 26 10.00 Fair CLR 64.4 33.8 32% 29.86 0.0
03 11:15 N 12 G 23 10.00 Fair CLR 64.4 33.8 32% 29.86 0.0
03 10:55 N 15 G 21 10.00 Fair CLR 64.4 33.8 32% 29.86 0.0
03 10:35 N 12 G 18 10.00 Fair CLR 62.6 35.6 37% 29.86 0.0
03 10:15 N 12 G 18 10.00 Fair CLR 62.6 35.6 37% 29.86 0.0
03 09:55 N 14 G 20 10.00 Fair CLR 60.8 35.6 39% 29.86 0.0
03 09:35 N 12 G 18 10.00 Fair CLR 60.8 35.6 39% 29.86 0.0
03 09:15 N 15 G 22 10.00 Fair CLR 59 35.6 42% 29.86 0.0
03 08:55 N 15 G 21 10.00 Fair CLR 57.2 35.6 44% 29.86 0.0
03 08:35 NW 14 G 18 10.00 Fair CLR 53.6 35.6 51% 29.85 0.0
03 08:15 NW 13 10.00 Fair CLR 53.6 35.6 51% 29.85 0.0
03 07:55 NW 9 10.00 Fair CLR 51.8 35.6 54% 29.84 0.0
03 07:35 NW 12 G 17 10.00 Fair CLR 50 35.6 58% 46 29.83 0.0
03 07:15 NW 12 G 16 10.00 Fair CLR 50 35.6 58% 46 29.82 0.0
03 06:55 NW 10 10.00 Fair CLR 48.2 35.6 62% 44 29.81 0.0
03 06:35 NW 9 10.00 Fair CLR 48.2 35.6 62% 45 29.8 0.0
03 06:15 NW 9 10.00 Fair CLR 48.2 35.6 62% 45 29.79 0.0
03 05:55 NW 8 10.00 Fair CLR 48.2 35.6 62% 45 29.78 0.0
03 05:35 NW 8 10.00 Fair CLR 50 35.6 58% 47 29.78 0.0
03 05:15 NW 8 10.00 Fair CLR 50 35.6 58% 47 29.78 0.0
03 04:55 NW 8 10.00 Fair CLR 51.8 35.6 54% 29.78 0.0
03 04:35 NW 8 10.00 Fair CLR 51.8 35.6 54% 29.77 0.0
03 04:15 NW 10 10.00 Fair CLR 51.8 33.8 50% 29.77 0.0
03 03:55 W 7 10.00 Fair CLR 50 32 50% 48 29.77 0.0
03 03:35 Calm 10.00 Fair CLR 50 33.8 54% 29.77 0.0
03 03:15 Calm 10.00 Fair CLR 50 32 50% 29.76 0.0
03 02:55 Calm 10.00 Fair CLR 51.8 32 47% 29.77 0.0
03 02:35 Calm 10.00 Fair CLR 51.8 32 47% 29.77 0.0
03 02:15 W 7 10.00 Fair CLR 53.6 32 44% 29.78 0.0
03 01:55 SW 13 10.00 Fair CLR 55.4 32 41% 29.78 0.0
03 01:35 SW 15 10.00 Fair CLR 55.4 32 41% 29.77 0.0
03 01:15 SW 18 10.00 Fair CLR 59 32 36% 29.77 0.0
03 00:55 SW 14 G 21 10.00 Fair CLR 59 32 36% 29.76 0.0
03 00:35 SW 16 G 25 10.00 Partly Cloudy SCT110 62.6 32 32% 29.76 0.0
03 00:15 SW 21 G 26 10.00 Overcast and Breezy SCT085 OVC110 62.6 32 32% 29.77 0.0
02 23:55 SW 16 10.00 Overcast OVC100 59 28.4 31% 29.79 0.0
02 23:35 SW 17 10.00 Mostly Cloudy BKN100 59 28.4 31% 29.79 0.0
02 23:15 S 13 10.00 Mostly Cloudy BKN110 57.2 28.4 33% 29.78 0.0
02 22:55 S 14 10.00 Partly Cloudy SCT110 55.4 28.4 36% 29.8 0.0
02 22:35 S 9 10.00 Fair CLR 55.4 30.2 38% 29.8 0.0
02 22:15 S 10 10.00 Fair CLR 55.4 30.2 38% 29.81 0.0
02 21:55 S 13 10.00 Fair CLR 57.2 28.4 33% 29.81 0.0
02 21:35 S 14 10.00 Partly Cloudy SCT095 SCT120 59 28.4 31% 29.82 0.0
02 21:15 S 12 10.00 Overcast OVC095 59 28.4 31% 29.82 0.0
02 20:55 S 9 10.00 Mostly Cloudy BKN110 57.2 28.4 33% 29.83 0.0
02 20:35 S 9 10.00 Fair CLR 55.4 28.4 36% 29.83 0.0
02 20:15 S 9 10.00 Fair CLR 59 28.4 31% 29.84 0.0
02 19:55 SW 10 10.00 Fair CLR 62.6 26.6 25% 29.85 0.0
02 19:35 SW 13 10.00 Fair CLR 64.4 28.4 26% 29.86 0.0
02 19:15 SW 18 G 22 10.00 Fair CLR 64.4 26.6 24% 29.86 0.0
02 18:55 SW 18 G 22 10.00 Fair CLR 66.2 26.6 22% 29.88 0.0
02 18:35 SW 20 10.00 Partly Cloudy SCT110 66.2 26.6 22% 29.88 0.0
02 18:15 SW 15 G 25 10.00 Partly Cloudy SCT120 66.2 26.6 22% 29.88 0.0
02 17:55 SW 16 G 26 10.00 Fair CLR 68 28.4 23% 29.89 0.0
02 17:35 SW 16 G 23 10.00 Mostly Cloudy SCT080 BKN095 66.2 28.4 24% 29.9 0.0
02 17:15 SW 18 10.00 Mostly Cloudy BKN095 BKN120 64.4 28.4 26% 29.94 0.0
02 16:55 SW 20 10.00 Partly Cloudy SCT120 64.4 28.4 26% 29.94 0.0
02 16:35 SW 20 G 24 10.00 Partly Cloudy SCT120 66.2 30.2 26% 29.95 0.0
02 16:15 SW 15 G 24 10.00 Mostly Cloudy BKN120 66.2 30.2 26% 29.94 0.0
02 15:55 SW 18 G 25 10.00 Mostly Cloudy BKN120 64.4 32 30% 29.95 0.0
02 15:35 SW 14 G 17 10.00 Fair CLR 66.2 32 28% 29.96 0.0
02 15:15 W 8 G 20 10.00 Fair CLR 64.4 30.2 28% 29.98 0.0
02 14:55 W 12 G 21 10.00 Fair CLR 64.4 32 30% 29.99 0.0
02 14:35 W 16 10.00 Fair CLR 64.4 32 30% 30 0.0
02 14:15 SW 6 G 13 10.00 Fair CLR 62.6 30.2 30% 30.01 0.0
02 13:55 W 12 G 25 10.00 Fair CLR 64.4 30.2 28% 30.02 0.0
02 13:35 SW 8 G 17 10.00 Fair CLR 62.6 32 32% 30.03 0.0
02 13:15 W 15 G 24 10.00 Fair CLR 62.6 32 32% 30.04 0.0
02 12:55 NW 9 10.00 Fair CLR 62.6 30.2 30% 30.05 0.0
02 12:35 W 7 G 12 10.00 Fair CLR 60.8 32 34% 30.05 0.0
02 12:15 SW 9 10.00 Fair CLR 60.8 30.2 31% 30.07 0.0
02 11:55 SW 6 G 20 10.00 Fair CLR 59 30.2 34% 30.07 0.0
02 11:35 SW 10 G 16 10.00 Fair CLR 59 30.2 34% 30.08 0.0
02 11:15 SW 10 G 16 10.00 Fair CLR 55.4 28.4 36% 30.08 0.0
02 10:55 SW 14 G 18 10.00 Fair CLR 55.4 30.2 38% 30.09 0.0
02 10:35 SW 12 G 16 10.00 Fair CLR 55.4 30.2 38% 30.1 0.0
02 10:15 SW 12 10.00 Fair CLR 53.6 28.4 38% 30.1 0.0
02 09:55 SW 10 10.00 Fair CLR 51.8 28.4 41% 30.1 0.0
02 09:35 SW 10 10.00 Fair CLR 51.8 28.4 41% 30.11 0.0
02 09:15 SW 12 10.00 Fair CLR 50 28.4 43% 46 30.11 0.0
02 08:55 SW 12 10.00 Fair CLR 46.4 30.2 53% 42 30.12 0.0
02 08:35 SW 6 10.00 Fair CLR 44.6 32 61% 42 30.12 0.0
02 08:15 Calm 10.00 Fair CLR 37.4 32 81% 30.12 0.0
02 07:55 Calm 10.00 Fair CLR 35.6 30.2 81% 30.12 0.0
02 07:35 Calm 10.00 Fair CLR 32 30.2 93% 30.13 0.0
02 07:15 Calm 10.00 Fair CLR 30.2 28.4 93% 30.13 0.0
02 06:55 Calm 10.00 Fair CLR 30.2 28.4 93% 30.13 0.0
02 06:35 Calm 10.00 Fair CLR 30.2 28.4 93% 30.13 0.0
02 06:15 Calm 10.00 Fair CLR 30.2 28.4 93% 30.12 0.0
02 05:55 Calm 10.00 Fair CLR 30.2 26.6 86% 30.13 0.0
02 05:35 Calm 10.00 Fair CLR 30.2 26.6 86% 30.13 0.0
02 05:15 Calm 10.00 Fair CLR 32 30.2 93% 30.13 0.0
02 04:55 Calm 10.00 Fair CLR 32 28.4 87% 30.13 0.0
02 04:35 Calm 10.00 Fair CLR 32 26.6 80% 30.13 0.0
02 04:15 Calm 10.00 Fair CLR 32 24.8 75% 30.13 0.0
02 03:55 Calm 10.00 Fair CLR 32 24.8 75% 30.13 0.0
02 03:35 Calm 10.00 Fair CLR 32 24.8 75% 30.13 0.0
02 03:15 Calm 10.00 Fair CLR 32 24.8 75% 30.12 0.0
02 02:55 Calm 10.00 Fair CLR 32 24.8 75% 30.13 0.0
02 02:35 Calm 10.00 Fair CLR 32 26.6 80% 30.13 0.0
02 02:15 Calm 10.00 Fair CLR 32 26.6 80% 30.13 0.0
02 01:55 Calm 10.00 Fair CLR 32 26.6 80% 30.14 0.0
02 01:35 Calm 10.00 Fair CLR 32 26.6 80% 30.14 0.0
02 01:15 Calm 10.00 Fair CLR 33.8 26.6 75% 30.14 0.0
02 00:55 Calm 10.00 Fair CLR 33.8 26.6 75% 30.14 0.0
02 00:35 Calm 10.00 Fair CLR 35.6 26.6 70% 30.14 0.0
02 00:15 Calm 10.00 Fair CLR 35.6 26.6 70% 30.14 0.0
01 23:55 Calm 10.00 Fair CLR 35.6 26.6 70% 30.14 0.0
01 23:35 Calm 10.00 Fair CLR 35.6 26.6 70% 30.14 0.0
01 23:15 Calm 10.00 Fair CLR 37.4 26.6 65% 30.14 0.0
01 22:55 Calm 10.00 Fair CLR 39.2 26.6 61% 30.13 0.0
01 22:35 Calm 10.00 Fair CLR 39.2 26.6 61% 30.13 0.0
01 22:15 Calm 10.00 Fair CLR 41 26.6 57% 30.13 0.0
01 21:55 Calm 10.00 Fair CLR 42.8 28.4 57% 30.12 0.0
01 21:35 NE 3 10.00 Fair CLR 44.6 26.6 49% 30.12 0.0
01 21:15 Calm 10.00 Fair CLR 44.6 26.6 49% 30.12 0.0
01 20:55 N 5 10.00 Fair CLR 46.4 24.8 43% 45 30.11 0.0
01 20:35 N 3 10.00 Fair CLR 48.2 24.8 40% 30.11 0.0
01 20:15 N 3 10.00 Fair CLR 50 23 35% 30.1 0.0
01 19:55 N 7 G 16 10.00 Partly Cloudy SCT070 50 23 35% 48 30.1 0.0
01 19:35 N 5 10.00 Partly Cloudy SCT070 51.8 23 32% 30.1 0.0
01 19:15 N 9 10.00 Fair CLR 51.8 21.2 30% 30.1 0.0
01 18:55 N 9 10.00 Partly Cloudy SCT070 51.8 23 32% 30.09 0.0
01 18:35 N 7 10.00 Partly Cloudy SCT070 51.8 23 32% 30.09 0.0
01 18:15 N 8 10.00 Partly Cloudy SCT070 51.8 23 32% 30.09 0.0
01 17:55 N 7 G 16 10.00 Fair CLR 53.6 23 30% 30.09 0.0
01 17:35 NW 10 G 17 10.00 Fair CLR 53.6 23 30% 30.09 0.0
01 17:15 NW 10 10.00 Partly Cloudy SCT070 51.8 23 32% 30.09 0.0
01 16:55 N 10 G 18 10.00 Partly Cloudy SCT070 51.8 23 32% 30.09 0.0
01 16:35 N 9 10.00 Partly Cloudy SCT060 51.8 23 32% 30.09 0.0
01 16:15 N 7 10.00 Partly Cloudy SCT060 51.8 23 32% 30.1 0.0
01 15:55 N 8 10.00 Partly Cloudy SCT060 53.6 23 30% 30.1 0.0
01 15:35 N 9 10.00 Partly Cloudy SCT060 51.8 24.8 35% 30.1 0.0
01 15:15 N 7 G 20 10.00 Partly Cloudy SCT060 51.8 23 32% 30.1 0.0
01 14:55 N 7 10.00 Partly Cloudy SCT060 51.8 26.6 38% 30.1 0.0
01 14:35 N 8 G 16 10.00 Partly Cloudy SCT060 51.8 26.6 38% 30.1 0.0
01 14:15 N 5 10.00 Partly Cloudy SCT060 50 24.8 37% 49 30.11 0.0
01 13:55 N 7 10.00 Mostly Cloudy BKN050 50 24.8 37% 48 30.11 0.0
01 13:35 N 10 G 16 10.00 Partly Cloudy SCT050 50 26.6 40% 46 30.11 0.0
01 13:15 N 7 10.00 Partly Cloudy SCT050 50 24.8 37% 48 30.11 0.0
01 12:55 N 8 10.00 Partly Cloudy SCT050 50 26.6 40% 47 30.12 0.0
01 12:35 N 10 10.00 Mostly Cloudy BKN050 48.2 24.8 40% 44 30.12 0.0
01 12:15 N 9 10.00 Partly Cloudy SCT050 48.2 24.8 40% 45 30.12 0.0
01 11:55 N 10 G 17 10.00 Partly Cloudy SCT048 SCT055 46.4 24.8 43% 42 30.12 0.0
01 11:35 N 13 G 21 10.00 Mostly Cloudy BKN048 BKN055 46.4 26.6 46% 41 30.11 0.0
01 11:15 N 13 G 20 10.00 Mostly Cloudy BKN048 BKN055 44.6 26.6 49% 39 30.11 0.0
01 10:55 N 13 G 22 10.00 Partly Cloudy SCT050 44.6 24.8 46% 39 30.11 0.0
01 10:35 N 8 G 21 10.00 Partly Cloudy SCT050 44.6 23 43% 41 30.11 0.0
01 10:15 N 10 G 18 10.00 Fair CLR 44.6 23 43% 40 30.11 0.0
01 09:55 N 13 10.00 Fair CLR 44.6 26.6 49% 39 30.11 0.0
01 09:35 N 13 G 21 10.00 Fair CLR 44.6 26.6 49% 39 30.11 0.0
01 09:15 N 10 G 17 10.00 Fair CLR 42.8 26.6 53% 38 30.11 0.0
01 08:55 N 12 G 17 10.00 Partly Cloudy SCT050 42.8 28.4 57% 37 30.11 0.0
01 08:35 N 10 G 17 10.00 Partly Cloudy SCT050 41 28.4 61% 35 30.1 0.0
01 08:15 N 14 G 18 10.00 Fair CLR 39.2 30.2 70% 32 30.1 0.0
01 07:55 N 6 10.00 Fair CLR 37.4 28.4 70% 33 30.1 0.0
Date Time (cdt) Wind (mph) Vis. (mi.) Weather Sky Cond. Air Dwpt Max. Min. Relative Humidity Wind Chill (°F) Heat Index (°F) altimeter (in) sea level (mb) 1 hr 3 hr 6 hr
6 hour
Temperature (ºF) Pressure Precipitation (in)